Боухантеры.ру

Информация о пользователе

Привет, Гость! Войдите или зарегистрируйтесь.


Вы здесь » Боухантеры.ру » Снаряжение боухантера


Снаряжение боухантера

Тем 181 страница 202 из 202

Тема Ответов Просмотров Последнее сообщение
9 125 2020-01-16 22:54:36  Юджин
182 Дальномер  Владимир
17 205 2020-01-14 22:43:47  Bows
183 Сброс  exc3lent
18 168 2020-01-14 08:57:49  Вован
6 118 2020-01-12 20:13:44  Тот Самый Олег
185 АТА шоу 2020  Александр Курашёв
15 159 2020-01-12 08:46:48  Черкасов
12 133 2020-01-11 08:45:15  iBolit66
187 Broadhead tuning  Тот Самый Олег
14 228 2020-01-10 00:20:07  Bows
188 Перчатки Sitka Ascent Glove - мой опыт  Александр Курашёв
3 52 2020-01-07 00:47:27  Pavel
3 94 2019-12-31 17:13:50  Юджин
190 Про АТА арбалета  Владимир
13 107 2019-12-29 10:28:55  Владимир
2 84 2019-12-27 23:26:46  Bows
1 39 2019-12-27 21:56:10  Александр Курашёв
193 Valkyrie наконечник валькирия  Тот Самый Олег
6 129 2019-12-25 17:04:56  Тот Самый Олег
15 450 2019-12-25 03:29:13  Тот Самый Олег
195 RMSG CUTTHROAT BROADHEAD  Тот Самый Олег
9 136 2019-12-24 23:00:04  Тот Самый Олег
196 Rage Hypodermic  Тот Самый Олег
1 47 2019-12-24 19:01:38  Foxshooter
197 German Kinetics  Тот Самый Олег
3 122 2019-12-24 16:33:33  Юджин
198 Модный вискербискет  Тот Самый Олег
2 69 2019-12-23 05:16:53  Тот Самый Олег
2 41 2019-12-23 01:18:48  Александр Курашёв
200 Опрос: Что бы вы хотели увидеть на АТА Шоу 2020?  Александр Курашёв
4 97 2019-12-22 12:44:30  Sanarcher
201 IQ Pro Hunter Sight  Владимир
12 126 2019-12-22 12:22:02  Sanarcher
3 136 2019-12-20 23:07:42  ОлегычЪ

Вы здесь » Боухантеры.ру » Снаряжение боухантера